KWLD/WLD METAR and TAF weather

Enter ICAO airport designator
Station Type Date Time Source
KWLD METAR 2020/09/22 18:04 UTC NOAA

KWLD 221804Z AUTO 10008KT 7SM BKN008 BKN012 OVC018 20/18 A3015 RMK AO2 CIG 005V011 T02000183


Station Type Date Time Source
KWLD Decoded METAR 2020/09/22 18:04 UTC NOAA

STROTHER FIELD, KS, United States (KWLD) 37-10N 97-02W 350M
Sep 22, 2020 - 02:04 PM EDT / 2020.09.22 1804 UTC
Wind: from the E (100 degrees) at 9 MPH (8 KT):0
Visibility: 7 mile(s):0
Sky conditions: overcast
Temperature: 68.0 F (20.0 C)
Dew Point: 64.9 F (18.3 C)
Relative Humidity: 89%
Pressure (altimeter): 30.15 in. Hg (1020 hPa)
ob: KWLD 221804Z AUTO 10008KT 7SM BKN008 BKN012 OVC018 20/18 A3015 RMK AO2 CIG 005V011 T02000183
cycle: 18

Station Type Date Time Source
KWLD TAF UTC NOAA

Error!

Example: see airport list